Time,TemperatureF,DewpointF,PressureIn,WindDirection,WindDirectionDegrees,WindSpeedMPH,WindSpeedGustMPH,Humidity,HourlyPrecipIn,Conditions,Clouds,dailyrainin,SoftwareType,DateUTC
2013-04-01 02:43:00,34.0,30.0,-100.00,ENE,68,1.0,3.0,86,-99.99,,,-99.99,,2013-04-01 09:43:00,
2013-04-01 02:53:00,34.0,30.0,-100.00,ENE,68,1.0,3.0,86,-99.99,,,-99.99,,2013-04-01 09:53:00,
2013-04-01 03:03:00,35.0,32.0,-100.00,NE,44,2.0,5.0,87,-99.99,,,-99.99,,2013-04-01 10:03:00,
2013-04-01 03:12:00,35.0,32.0,-100.00,NE,44,2.0,5.0,87,-99.99,,,-99.99,,2013-04-01 10:12:00,
2013-04-01 03:23:00,35.0,32.0,-100.00,NE,44,2.0,5.0,87,-99.99,,,-99.99,,2013-04-01 10:23:00,
2013-04-01 03:33:00,35.0,32.0,-100.00,NE,44,2.0,5.0,87,-99.99,,,-99.99,,2013-04-01 10:33:00,
2013-04-01 03:43:00,34.0,31.0,-100.00,East,95,1.0,3.0,90,-99.99,,,-99.99,,2013-04-01 10:43:00,
2013-04-01 03:53:00,34.0,31.0,-100.00,East,95,1.0,3.0,90,-99.99,,,-99.99,,2013-04-01 10:53:00,
2013-04-01 04:02:00,34.0,31.0,-100.00,East,95,1.0,3.0,90,-99.99,,,-99.99,,2013-04-01 11:02:00,
2013-04-01 04:12:00,34.0,31.0,-100.00,East,95,1.0,3.0,90,-99.99,,,-99.99,,2013-04-01 11:12:00,
2013-04-01 06:12:00,34.0,32.0,-100.00,ENE,72,1.0,5.0,92,-99.99,,,-99.99,,2013-04-01 13:12:00,
2013-04-01 06:22:00,34.0,32.0,-100.00,ENE,72,1.0,5.0,92,-99.99,,,-99.99,,2013-04-01 13:22:00,
2013-04-01 06:32:00,34.0,32.0,-100.00,ENE,72,1.0,5.0,92,-99.99,,,-99.99,,2013-04-01 13:32:00,
2013-04-01 06:42:00,34.0,32.0,-100.00,NE,47,1.0,3.0,93,-99.99,,,-99.99,,2013-04-01 13:42:00,
2013-04-01 06:52:00,34.0,32.0,-100.00,NNE,31,1.0,5.0,93,-99.99,,,-99.99,,2013-04-01 13:52:00,
2013-04-01 07:03:00,34.0,32.0,-100.00,NNE,31,1.0,5.0,93,-99.99,,,-99.99,,2013-04-01 14:03:00,
2013-04-01 07:12:00,34.0,32.0,-100.00,NNE,31,1.0,5.0,93,-99.99,,,-99.99,,2013-04-01 14:12:00,
2013-04-01 07:22:00,34.0,32.0,-100.00,NNE,31,1.0,5.0,93,-99.99,,,-99.99,,2013-04-01 14:22:00,
2013-04-01 11:22:00,40.0,32.0,-100.00,NNW,339,1.0,4.0,72,-99.99,,,-99.99,,2013-04-01 18:22:00,
2013-04-01 11:32:00,40.0,32.0,-100.00,NNW,339,1.0,4.0,72,-99.99,,,-99.99,,2013-04-01 18:32:00,
2013-04-01 11:42:00,40.0,32.0,-100.00,NNW,339,1.0,4.0,72,-99.99,,,-99.99,,2013-04-01 18:42:00,
2013-04-01 11:52:00,40.0,32.0,-100.00,NNW,339,1.0,4.0,72,-99.99,,,-99.99,,2013-04-01 18:52:00,
2013-04-01 12:21:00,42.0,32.0,-100.00,NNW,339,1.0,4.0,67,-99.99,,,-99.99,,2013-04-01 19:21:00,
2013-04-01 12:53:00,42.0,32.0,-100.00,NNW,339,1.0,4.0,67,-99.99,,,-99.99,,2013-04-01 19:53:00,
2013-04-01 13:02:00,42.0,32.0,-100.00,NNW,339,1.0,4.0,67,-99.99,,,-99.99,,2013-04-01 20:02:00,
2013-04-01 13:12:00,42.0,32.0,-100.00,NNW,339,1.0,4.0,67,-99.99,,,-99.99,,2013-04-01 20:12:00,
2013-04-01 14:02:00,47.0,32.0,-100.00,NNW,336,1.0,5.0,56,-99.99,,,-99.99,,2013-04-01 21:02:00,
2013-04-01 14:33:00,47.0,32.0,-100.00,NNW,336,1.0,5.0,56,-99.99,,,-99.99,,2013-04-01 21:33:00,
2013-04-01 14:43:00,47.0,32.0,-100.00,NNW,336,1.0,5.0,56,-99.99,,,-99.99,,2013-04-01 21:43:00,
2013-04-01 14:53:00,47.0,32.0,-100.00,NNW,336,1.0,5.0,56,-99.99,,,-99.99,,2013-04-01 21:53:00,
2013-04-01 16:12:00,44.0,33.0,-100.00,North,8,1.0,4.0,66,-99.99,,,-99.99,,2013-04-01 23:12:00,
2013-04-01 16:22:00,44.0,33.0,-100.00,North,8,1.0,4.0,66,-99.99,,,-99.99,,2013-04-01 23:22:00,
2013-04-01 16:32:00,44.0,33.0,-100.00,North,8,1.0,4.0,66,-99.99,,,-99.99,,2013-04-01 23:32:00,
2013-04-01 16:42:00,44.0,33.0,-100.00,North,8,1.0,4.0,66,-99.99,,,-99.99,,2013-04-01 23:42:00,
2013-04-01 17:43:00,47.0,35.0,-100.00,North,352,1.0,4.0,62,-99.99,,,-99.99,,2013-04-02 00:43:00,
2013-04-01 17:53:00,47.0,35.0,-100.00,North,352,1.0,4.0,62,-99.99,,,-99.99,,2013-04-02 00:53:00,
2013-04-01 18:02:00,47.0,35.0,-100.00,NW,326,1.0,3.0,62,-99.99,,,-99.99,,2013-04-02 01:02:00,
2013-04-01 18:11:00,47.0,35.0,-100.00,NW,326,1.0,3.0,62,-99.99,,,-99.99,,2013-04-02 01:11:00,
2013-04-01 18:22:00,47.0,35.0,-100.00,NW,326,1.0,3.0,62,-99.99,,,-99.99,,2013-04-02 01:22:00,
2013-04-01 18:32:00,47.0,35.0,-100.00,NW,326,1.0,3.0,62,-99.99,,,-99.99,,2013-04-02 01:32:00,